createdAt,value
2019-04-27T00:00:00.007Z,0
2019-04-27T00:01:00.175Z,0
2019-04-27T00:02:01.572Z,0
2019-04-27T00:03:05.981Z,0
2019-04-27T00:04:04.325Z,0
2019-04-27T00:05:05.750Z,0
2019-04-27T00:06:08.523Z,0
2019-04-27T00:07:08.489Z,0
2019-04-27T00:08:10.132Z,0
2019-04-27T00:09:11.732Z,0
2019-04-27T00:10:13.707Z,0
2019-04-27T00:11:14.361Z,0
2019-04-27T00:12:22.111Z,0
2019-04-27T00:13:17.127Z,0
2019-04-27T00:14:18.578Z,0
2019-04-27T00:15:19.980Z,0
2019-04-27T00:16:21.372Z,0
2019-04-27T00:17:41.336Z,0
2019-04-27T00:18:24.206Z,0
2019-04-27T00:19:27.350Z,0
2019-04-27T00:20:26.978Z,0
2019-04-27T00:21:28.393Z,0
2019-04-27T00:22:30.011Z,0
2019-04-27T00:23:31.163Z,0
2019-04-27T00:24:33.561Z,0
2019-04-27T00:25:34.146Z,0
2019-04-27T00:26:35.531Z,0
2019-04-27T00:27:36.968Z,0
2019-04-27T00:28:38.485Z,0
2019-04-27T00:29:39.873Z,0
2019-04-27T00:30:41.268Z,0
2019-04-27T00:31:43.501Z,0
2019-04-27T00:32:44.135Z,0
2019-04-27T00:33:45.530Z,0
2019-04-27T00:34:46.973Z,0
2019-04-27T00:35:48.367Z,0
2019-04-27T00:36:49.788Z,0
2019-04-27T00:37:52.937Z,0
2019-04-27T00:38:53.472Z,0
2019-04-27T00:39:54.254Z,0
2019-04-27T00:40:55.539Z,0
2019-04-27T00:41:56.930Z,0
2019-04-27T00:42:58.478Z,0
2019-04-27T00:43:59.876Z,0
2019-04-27T00:45:02.976Z,0
2019-04-27T00:46:03.937Z,0
2019-04-27T00:47:04.162Z,0
2019-04-27T00:48:05.548Z,0
2019-04-27T00:49:07.006Z,0
2019-04-27T00:50:08.390Z,0
2019-04-27T00:51:09.793Z,0
2019-04-27T00:52:11.193Z,0
2019-04-27T00:53:13.386Z,0
2019-04-27T00:54:14.012Z,0
2019-04-27T00:55:15.414Z,0
2019-04-27T00:56:16.825Z,0
2019-04-27T00:57:18.299Z,0
2019-04-27T00:58:19.694Z,0
2019-04-27T00:59:21.095Z,0
2019-04-27T01:00:23.548Z,0
2019-04-27T01:01:24.126Z,0
2019-04-27T01:02:25.513Z,0
2019-04-27T01:03:26.979Z,0
2019-04-27T01:04:28.371Z,0
2019-04-27T01:05:29.770Z,0
2019-04-27T01:06:31.163Z,0
2019-04-27T01:07:33.407Z,0
2019-04-27T01:08:34.250Z,0
2019-04-27T01:09:35.275Z,0
2019-04-27T01:10:36.662Z,0
2019-04-27T01:11:38.054Z,0
2019-04-27T01:12:39.661Z,0
2019-04-27T01:13:41.065Z,0
2019-04-27T01:14:42.811Z,0
2019-04-27T01:15:43.810Z,0
2019-04-27T01:16:45.224Z,0
2019-04-27T01:17:46.613Z,0
2019-04-27T01:18:48.897Z,0
2019-04-27T01:19:49.453Z,0
2019-04-27T01:20:50.718Z,0
2019-04-27T01:21:52.374Z,0
2019-04-27T01:22:53.763Z,0
2019-04-27T01:23:55.167Z,0
2019-04-27T01:24:56.557Z,0
2019-04-27T01:25:59.724Z,0
2019-04-27T01:27:00.039Z,0
2019-04-27T01:28:00.716Z,0
2019-04-27T01:29:02.177Z,0
2019-04-27T01:30:03.604Z,0
2019-04-27T01:31:05.068Z,0
2019-04-27T01:32:06.464Z,0
2019-04-27T01:33:09.630Z,0
2019-04-27T01:34:09.336Z,0
2019-04-27T01:35:10.587Z,0
2019-04-27T01:36:11.978Z,0
2019-04-27T01:37:13.393Z,0
2019-04-27T01:38:14.790Z,0
2019-04-27T01:39:16.193Z,0
2019-04-27T01:40:19.247Z,0
2019-04-27T01:41:19.153Z,0
2019-04-27T01:42:20.318Z,0
2019-04-27T01:43:21.713Z,0
2019-04-27T01:44:23.108Z,0
2019-04-27T01:45:24.491Z,0
2019-04-27T01:46:25.883Z,0
2019-04-27T01:47:28.845Z,0
2019-04-27T01:48:30.518Z,0
2019-04-27T01:49:29.995Z,0
2019-04-27T01:50:31.381Z,0
2019-04-27T01:51:32.768Z,0
2019-04-27T01:52:34.160Z,0
2019-04-27T01:53:35.579Z,0
2019-04-27T01:54:36.976Z,0
2019-04-27T01:55:40.629Z,0
2019-04-27T01:56:39.727Z,0
2019-04-27T01:57:41.127Z,0
2019-04-27T01:58:42.518Z,0
2019-04-27T01:59:43.913Z,0
2019-04-27T02:00:45.310Z,0
2019-04-27T02:01:46.718Z,0
2019-04-27T02:02:49.386Z,0
2019-04-27T02:03:49.476Z,0
2019-04-27T02:04:50.873Z,0
2019-04-27T02:05:52.272Z,0
2019-04-27T02:06:53.664Z,0
2019-04-27T02:07:55.068Z,0
2019-04-27T02:08:56.462Z,0
2019-04-27T02:09:58.874Z,0
2019-04-27T02:10:59.461Z,0
2019-04-27T02:12:00.566Z,0
2019-04-27T02:13:01.956Z,0
2019-04-27T02:14:03.383Z,0
2019-04-27T02:15:04.777Z,0
2019-04-27T02:16:06.175Z,0
2019-04-27T02:17:09.208Z,0
2019-04-27T02:18:09.446Z,0
2019-04-27T02:19:11.328Z,0
2019-04-27T02:20:11.784Z,0
2019-04-27T02:21:13.181Z,0
2019-04-27T02:22:14.572Z,0
2019-04-27T02:23:15.975Z,0
2019-04-27T02:24:18.525Z,0
2019-04-27T02:25:19.249Z,0
2019-04-27T02:26:21.575Z,0
2019-04-27T02:27:21.439Z,0
2019-04-27T02:28:22.842Z,0
2019-04-27T02:29:24.229Z,0
2019-04-27T02:30:25.636Z,0
2019-04-27T02:31:29.009Z,0
2019-04-27T02:32:29.127Z,0
2019-04-27T02:33:30.246Z,0
2019-04-27T02:34:32.353Z,0
2019-04-27T02:35:32.486Z,0
2019-04-27T02:36:33.875Z,0
2019-04-27T02:37:35.274Z,0
2019-04-27T02:38:36.706Z,0
2019-04-27T02:39:39.775Z,0
2019-04-27T02:40:42.582Z,0
2019-04-27T02:41:40.834Z,0
2019-04-27T02:42:42.372Z,0
2019-04-27T02:43:43.590Z,0
2019-04-27T02:44:46.597Z,0
2019-04-27T02:45:50.143Z,0
2019-04-27T02:46:50.193Z,0
2019-04-27T02:47:51.973Z,0
2019-04-27T02:48:59.752Z,0
2019-04-27T02:49:53.578Z,0
2019-04-27T02:50:54.975Z,0
2019-04-27T02:51:56.384Z,0
2019-04-27T02:53:00.238Z,0
2019-04-27T02:54:00.144Z,0
2019-04-27T02:55:00.495Z,0
2019-04-27T02:56:01.894Z,0
2019-04-27T02:57:03.289Z,0
2019-04-27T02:58:04.676Z,0
2019-04-27T02:59:06.074Z,0
2019-04-27T03:00:07.487Z,0
2019-04-27T03:01:09.962Z,0
2019-04-27T03:02:10.831Z,0
2019-04-27T03:03:11.727Z,0
2019-04-27T03:04:13.118Z,0
2019-04-27T03:05:14.506Z,0
2019-04-27T03:06:15.896Z,0
2019-04-27T03:07:17.353Z,0
2019-04-27T03:08:20.008Z,0
2019-04-27T03:09:20.447Z,0
2019-04-27T03:10:21.506Z,0
2019-04-27T03:11:23.546Z,0
2019-04-27T03:12:24.245Z,0
2019-04-27T03:13:25.639Z,0
2019-04-27T03:14:32.621Z,0
2019-04-27T03:15:30.348Z,0
2019-04-27T03:16:29.831Z,0
2019-04-27T03:17:31.328Z,0
2019-04-27T03:18:32.906Z,0
2019-04-27T03:19:33.917Z,0
2019-04-27T03:20:35.334Z,0
2019-04-27T03:21:39.465Z,0
2019-04-27T03:22:39.842Z,0
2019-04-27T03:23:41.086Z,0
2019-04-27T03:24:40.765Z,0
2019-04-27T03:25:42.157Z,0
2019-04-27T03:26:43.553Z,0
2019-04-27T03:27:44.933Z,0
2019-04-27T03:28:46.331Z,0
2019-04-27T03:29:49.719Z,0
2019-04-27T03:30:52.269Z,0
2019-04-27T03:31:53.904Z,0
2019-04-27T03:32:56.584Z,0
2019-04-27T03:33:58.645Z,0
2019-04-27T03:34:54.526Z,0
2019-04-27T03:35:55.933Z,0
2019-04-27T03:36:59.652Z,0
2019-04-27T03:38:00.513Z,0
2019-04-27T03:39:00.171Z,0
2019-04-27T03:40:01.402Z,0
2019-04-27T03:41:02.811Z,0
2019-04-27T03:42:04.197Z,0
2019-04-27T03:43:05.583Z,0
2019-04-27T03:44:09.284Z,0
2019-04-27T03:45:10.459Z,0
2019-04-27T03:46:10.332Z,0
2019-04-27T03:47:12.723Z,0
2019-04-27T03:48:12.393Z,0
2019-04-27T03:49:27.959Z,0
2019-04-27T03:50:15.134Z,0
2019-04-27T03:51:16.522Z,0
2019-04-27T03:52:19.764Z,0
2019-04-27T03:53:20.561Z,0
2019-04-27T03:54:22.176Z,0
2019-04-27T03:55:21.985Z,0
2019-04-27T03:56:23.376Z,4
2019-04-27T03:57:24.774Z,4
2019-04-27T03:58:26.162Z,0
2019-04-27T03:59:29.436Z,0
2019-04-27T04:00:30.017Z,4
2019-04-27T04:01:30.336Z,4
2019-04-27T04:02:31.719Z,4
2019-04-27T04:03:33.115Z,4
2019-04-27T04:04:34.530Z,4
2019-04-27T04:05:35.924Z,4
2019-04-27T04:06:39.717Z,4
2019-04-27T04:07:40.162Z,8
2019-04-27T04:08:40.114Z,4
2019-04-27T04:09:41.499Z,8
2019-04-27T04:10:42.897Z,8
2019-04-27T04:11:46.103Z,12
2019-04-27T04:12:49.864Z,12
2019-04-27T04:13:49.454Z,12
2019-04-27T04:14:50.233Z,12
2019-04-27T04:15:52.244Z,12
2019-04-27T04:16:53.041Z,16
2019-04-27T04:17:54.429Z,16
2019-04-27T04:18:55.849Z,16
2019-04-27T04:19:58.545Z,20
2019-04-27T04:21:00.456Z,20
2019-04-27T04:22:00.093Z,24
2019-04-27T04:23:03.248Z,28
2019-04-27T04:24:02.842Z,28
2019-04-27T04:25:04.248Z,32
2019-04-27T04:26:05.630Z,32
2019-04-27T04:27:07.024Z,32
2019-04-27T04:28:09.387Z,36
2019-04-27T04:29:10.384Z,40
2019-04-27T04:30:12.291Z,40
2019-04-27T04:31:13.772Z,40
2019-04-27T04:32:13.901Z,44
2019-04-27T04:33:15.291Z,44
2019-04-27T04:34:16.685Z,44
2019-04-27T04:35:20.727Z,48
2019-04-27T04:36:20.152Z,48
2019-04-27T04:37:20.961Z,48
2019-04-27T04:38:22.330Z,48
2019-04-27T04:39:23.722Z,52
2019-04-27T04:40:25.117Z,52
2019-04-27T04:41:26.505Z,56
2019-04-27T04:42:29.776Z,60
2019-04-27T04:43:29.448Z,64
2019-04-27T04:44:30.609Z,64
2019-04-27T04:45:32.003Z,72
2019-04-27T04:46:33.398Z,72
2019-04-27T04:47:34.864Z,76
2019-04-27T04:48:36.256Z,80
2019-04-27T04:49:39.592Z,84
2019-04-27T04:50:39.651Z,88
2019-04-27T04:51:40.383Z,88
2019-04-27T04:52:42.438Z,92
2019-04-27T04:53:43.128Z,96
2019-04-27T04:54:44.522Z,96
2019-04-27T04:55:45.915Z,100
2019-04-27T04:56:48.905Z,100
2019-04-27T04:57:49.345Z,104
2019-04-27T04:58:50.023Z,112
2019-04-27T04:59:51.601Z,116
2019-04-27T05:00:52.805Z,120
2019-04-27T05:01:54.200Z,120
2019-04-27T05:02:55.634Z,128
2019-04-27T05:03:58.902Z,136
2019-04-27T05:04:59.081Z,140
2019-04-27T05:05:59.771Z,144
2019-04-27T05:07:01.168Z,152
2019-04-27T05:08:02.584Z,164
2019-04-27T05:09:03.981Z,168
2019-04-27T05:10:05.380Z,172
2019-04-27T05:11:06.774Z,168
2019-04-27T05:12:08.897Z,164
2019-04-27T05:13:09.536Z,156
2019-04-27T05:14:10.908Z,152
2019-04-27T05:15:12.321Z,148
2019-04-27T05:16:13.710Z,152
2019-04-27T05:17:15.106Z,168
2019-04-27T05:18:16.517Z,180
2019-04-27T05:19:18.879Z,184
2019-04-27T05:20:24.459Z,184
2019-04-27T05:21:20.633Z,184
2019-04-27T05:22:22.029Z,188
2019-04-27T05:23:23.424Z,196
2019-04-27T05:24:24.834Z,188
2019-04-27T05:25:26.229Z,176
2019-04-27T05:26:29.351Z,160
2019-04-27T05:27:29.075Z,164
2019-04-27T05:28:30.348Z,168
2019-04-27T05:29:31.739Z,180
2019-04-27T05:30:33.134Z,188
2019-04-27T05:31:34.526Z,196
2019-04-27T05:32:35.923Z,208
2019-04-27T05:33:38.757Z,212
2019-04-27T05:34:39.459Z,216
2019-04-27T05:35:41.086Z,216
2019-04-27T05:36:48.336Z,212
2019-04-27T05:37:44.419Z,212
2019-04-27T05:38:46.057Z,216
2019-04-27T05:39:45.881Z,220
2019-04-27T05:40:47.297Z,220
2019-04-27T05:41:49.799Z,220
2019-04-27T05:42:55.035Z,216
2019-04-27T05:43:51.462Z,224
2019-04-27T05:44:52.855Z,232
2019-04-27T05:45:59.382Z,244
2019-04-27T05:46:55.610Z,256
2019-04-27T05:47:57.002Z,272
2019-04-27T05:48:59.927Z,288
2019-04-27T05:49:59.793Z,304
2019-04-27T05:51:02.038Z,308
2019-04-27T05:52:02.546Z,296
2019-04-27T05:53:03.948Z,288
2019-04-27T05:54:05.347Z,296
2019-04-27T05:55:06.739Z,336
2019-04-27T05:56:09.265Z,356
2019-04-27T05:57:09.588Z,372
2019-04-27T05:58:10.849Z,392
2019-04-27T05:59:14.611Z,376
2019-04-27T06:00:13.890Z,332
2019-04-27T06:01:15.420Z,288
2019-04-27T06:02:16.949Z,256
2019-04-27T06:03:18.649Z,228
2019-04-27T06:04:19.761Z,256
2019-04-27T06:05:22.744Z,300
2019-04-27T06:06:23.029Z,332
2019-04-27T06:07:24.539Z,372
2019-04-27T06:08:26.133Z,392
2019-04-27T06:09:28.794Z,372
2019-04-27T06:10:29.716Z,348
2019-04-27T06:11:31.395Z,372
2019-04-27T06:12:32.996Z,408
2019-04-27T06:13:34.570Z,412
2019-04-27T06:14:36.123Z,436
2019-04-27T06:15:38.842Z,428
2019-04-27T06:16:39.530Z,428
2019-04-27T06:17:40.867Z,432
2019-04-27T06:18:42.481Z,444
2019-04-27T06:19:44.265Z,456
2019-04-27T06:20:53.511Z,484
2019-04-27T06:21:47.521Z,500
2019-04-27T06:22:49.104Z,496
2019-04-27T06:23:50.584Z,504
2019-04-27T06:24:54.323Z,488
2019-04-27T06:25:53.630Z,464
2019-04-27T06:26:55.297Z,460
2019-04-27T06:27:56.840Z,468
2019-04-27T06:28:59.507Z,484
2019-04-27T06:30:00.039Z,492
2019-04-27T06:31:01.642Z,480
2019-04-27T06:32:03.231Z,444
2019-04-27T06:33:04.816Z,420
2019-04-27T06:34:06.874Z,388
2019-04-27T06:35:09.873Z,392
2019-04-27T06:36:10.364Z,352
2019-04-27T06:37:11.769Z,336
2019-04-27T06:38:13.204Z,316
2019-04-27T06:39:14.624Z,300
2019-04-27T06:40:16.083Z,288
2019-04-27T06:41:18.853Z,292
2019-04-27T06:42:20.666Z,296
2019-04-27T06:43:20.544Z,292
2019-04-27T06:44:21.934Z,316
2019-04-27T06:45:23.475Z,324
2019-04-27T06:46:24.930Z,364
2019-04-27T06:47:26.425Z,396
2019-04-27T06:48:29.499Z,436
2019-04-27T06:49:29.493Z,444
2019-04-27T06:50:30.777Z,460
2019-04-27T06:51:32.249Z,504
2019-04-27T06:52:33.730Z,592
2019-04-27T06:53:35.149Z,696
2019-04-27T06:54:36.613Z,824
2019-04-27T06:55:39.195Z,920
2019-04-27T06:56:39.489Z,932
2019-04-27T06:57:41.212Z,784
2019-04-27T06:58:42.331Z,600
2019-04-27T06:59:43.778Z,468
2019-04-27T07:00:45.389Z,416
2019-04-27T07:01:48.642Z,452
2019-04-27T07:02:49.266Z,492
2019-04-27T07:03:50.035Z,508
2019-04-27T07:04:51.519Z,524
2019-04-27T07:05:52.982Z,472
2019-04-27T07:06:56.149Z,592
2019-04-27T07:07:55.875Z,692
2019-04-27T07:08:57.345Z,640
2019-04-27T07:09:59.199Z,628
2019-04-27T07:11:00.396Z,688
2019-04-27T07:12:01.794Z,768
2019-04-27T07:13:04.331Z,768
2019-04-27T07:14:05.753Z,764
2019-04-27T07:15:08.838Z,744
2019-04-27T07:16:09.654Z,640
2019-04-27T07:17:10.183Z,548
2019-04-27T07:18:11.750Z,548
2019-04-27T07:19:13.246Z,436
2019-04-27T07:20:14.771Z,340
2019-04-27T07:21:18.807Z,372
2019-04-27T07:22:17.738Z,440
2019-04-27T07:23:20.903Z,500
2019-04-27T07:24:20.858Z,640
2019-04-27T07:25:22.290Z,580
2019-04-27T07:26:23.737Z,536
2019-04-27T07:27:25.185Z,452
2019-04-27T07:28:28.550Z,344
2019-04-27T07:29:29.266Z,332
2019-04-27T07:30:29.556Z,440
2019-04-27T07:31:31.812Z,516
2019-04-27T07:32:32.526Z,464
2019-04-27T07:33:34.007Z,512
2019-04-27T07:34:35.503Z,616
2019-04-27T07:35:37.128Z,548
2019-04-27T07:36:39.276Z,584
2019-04-27T07:37:40.162Z,672
2019-04-27T07:38:41.639Z,836
2019-04-27T07:39:43.146Z,888
2019-04-27T07:40:44.825Z,648
2019-04-27T07:41:46.343Z,624
2019-04-27T07:42:49.531Z,804
2019-04-27T07:43:50.117Z,868
2019-04-27T07:44:51.879Z,836
2019-04-27T07:45:54.075Z,820
2019-04-27T07:46:55.492Z,764
2019-04-27T07:47:59.044Z,820
2019-04-27T07:48:59.487Z,900
2019-04-27T07:50:01.454Z,1096
2019-04-27T07:51:01.923Z,1196
2019-04-27T07:52:03.504Z,1360
2019-04-27T07:53:05.131Z,1104
2019-04-27T07:54:06.738Z,1260
2019-04-27T07:55:08.718Z,1316
2019-04-27T07:56:10.805Z,1240
2019-04-27T07:57:11.752Z,1452
2019-04-27T07:58:13.364Z,1516
2019-04-27T07:59:15.026Z,1556
2019-04-27T08:00:16.573Z,1880
2019-04-27T08:01:19.246Z,2212
2019-04-27T08:02:19.675Z,2296
2019-04-27T08:03:21.370Z,2248
2019-04-27T08:04:22.886Z,2380
2019-04-27T08:05:24.380Z,2176
2019-04-27T08:06:25.871Z,1992
2019-04-27T08:07:28.924Z,1752
2019-04-27T08:08:28.958Z,1564
2019-04-27T08:09:30.500Z,1488
2019-04-27T08:10:32.102Z,1360
2019-04-27T08:11:33.572Z,1504
2019-04-27T08:12:35.249Z,1504
2019-04-27T08:13:36.700Z,1536
2019-04-27T08:14:38.489Z,1616
2019-04-27T08:15:39.764Z,1640
2019-04-27T08:16:41.101Z,1584
2019-04-27T08:17:42.950Z,1552
2019-04-27T08:18:44.317Z,1480
2019-04-27T08:19:45.897Z,1184
2019-04-27T08:20:49.053Z,1004
2019-04-27T08:21:49.890Z,792
2019-04-27T08:22:51.066Z,892
2019-04-27T08:23:52.675Z,972
2019-04-27T08:24:54.257Z,848
2019-04-27T08:25:56.501Z,648
2019-04-27T08:26:59.449Z,596
2019-04-27T08:28:01.977Z,680
2019-04-27T08:29:06.459Z,592
2019-04-27T08:30:09.395Z,508
2019-04-27T08:31:10.699Z,648
2019-04-27T08:32:13.076Z,652
2019-04-27T08:33:14.562Z,636
2019-04-27T08:34:18.430Z,532
2019-04-27T08:35:19.501Z,744
2019-04-27T08:36:21.448Z,800
2019-04-27T08:37:23.340Z,636
2019-04-27T08:38:25.180Z,780
2019-04-27T08:39:26.780Z,868
2019-04-27T08:40:29.304Z,960
2019-04-27T08:41:30.478Z,1028
2019-04-27T08:42:32.043Z,1168
2019-04-27T08:43:33.885Z,1224
2019-04-27T08:44:35.560Z,1220
2019-04-27T08:45:37.024Z,936
2019-04-27T08:46:38.872Z,784
2019-04-27T08:47:41.778Z,924
2019-04-27T08:48:42.436Z,1112
2019-04-27T08:49:44.259Z,1368
2019-04-27T08:50:46.137Z,1240
2019-04-27T08:51:58.073Z,1208
2019-04-27T08:52:52.066Z,860
2019-04-27T08:53:53.597Z,820
2019-04-27T08:54:55.939Z,584
2019-04-27T08:55:59.047Z,440
2019-04-27T08:57:01.687Z,320
2019-04-27T08:58:02.542Z,232
2019-04-27T08:59:04.009Z,256
2019-04-27T09:00:09.385Z,312
2019-04-27T09:01:10.488Z,372
2019-04-27T09:02:12.610Z,492
2019-04-27T09:03:14.277Z,624
2019-04-27T09:04:16.391Z,776
2019-04-27T09:05:19.285Z,764
2019-04-27T09:06:21.494Z,772
2019-04-27T09:07:25.747Z,856
2019-04-27T09:08:29.031Z,1136
2019-04-27T09:09:39.634Z,1460
2019-04-27T09:10:43.607Z,1480
2019-04-27T09:11:49.342Z,1512
2019-04-27T09:12:53.936Z,1568
2019-04-27T09:13:55.315Z,1724
2019-04-27T09:14:57.134Z,1880
2019-04-27T09:16:00.037Z,1912
2019-04-27T09:17:02.813Z,1752
2019-04-27T09:18:03.535Z,1960
2019-04-27T09:19:04.973Z,2076
2019-04-27T09:20:06.372Z,2276
2019-04-27T09:21:08.773Z,2668
2019-04-27T09:22:16.127Z,2884
2019-04-27T09:23:13.036Z,3936
2019-04-27T09:24:15.128Z,3588
2019-04-27T09:25:16.733Z,3080
2019-04-27T09:26:18.593Z,2536
2019-04-27T09:27:21.070Z,2260
2019-04-27T09:28:24.398Z,2148
2019-04-27T09:29:26.884Z,1964
2019-04-27T09:30:29.800Z,1948
2019-04-27T09:31:32.460Z,1916
2019-04-27T09:32:34.724Z,1924
2019-04-27T09:33:37.742Z,2108
2019-04-27T09:34:39.552Z,2332
2019-04-27T09:35:41.205Z,2584
2019-04-27T09:36:42.745Z,2760
2019-04-27T09:37:45.879Z,2844
2019-04-27T09:38:47.382Z,3404
2019-04-27T09:39:48.847Z,4248
2019-04-27T09:40:50.506Z,5832
2019-04-27T09:41:52.270Z,4924
2019-04-27T09:42:54.163Z,4840
2019-04-27T09:43:55.875Z,4676
2019-04-27T09:44:57.216Z,3804
2019-04-27T09:45:58.862Z,3652
2019-04-27T09:47:00.485Z,3644
2019-04-27T09:48:02.003Z,3588
2019-04-27T09:49:03.576Z,2908
2019-04-27T09:50:05.758Z,2696
2019-04-27T09:51:06.807Z,2768
2019-04-27T09:52:08.362Z,2712
2019-04-27T09:53:09.932Z,2896
2019-04-27T09:54:11.613Z,3228
2019-04-27T09:55:13.222Z,3336
2019-04-27T09:56:16.376Z,3212
2019-04-27T09:57:16.450Z,3816
2019-04-27T09:58:18.518Z,5408
2019-04-27T09:59:19.630Z,4828
2019-04-27T10:00:21.284Z,4300
2019-04-27T10:01:23.745Z,4292
2019-04-27T10:02:26.844Z,4548
2019-04-27T10:03:27.027Z,5720
2019-04-27T10:04:28.604Z,5496
2019-04-27T10:05:30.173Z,5208
2019-04-27T10:06:32.160Z,4476
2019-04-27T10:07:35.759Z,4564
2019-04-27T10:08:36.683Z,5312
2019-04-27T10:09:38.218Z,5040
2019-04-27T10:10:39.957Z,4372
2019-04-27T10:11:41.603Z,2916
2019-04-27T10:12:43.326Z,2648
2019-04-27T10:13:46.418Z,2508
2019-04-27T10:14:47.868Z,2144
2019-04-27T10:15:49.328Z,1980
2019-04-27T10:16:51.180Z,1872
2019-04-27T10:17:52.810Z,1688
2019-04-27T10:18:54.561Z,1508
2019-04-27T10:19:57.052Z,1444
2019-04-27T10:21:01.895Z,1444
2019-04-27T10:21:59.443Z,1452
2019-04-27T10:23:01.234Z,1424
2019-04-27T10:24:02.902Z,1388
2019-04-27T10:25:04.458Z,1316
2019-04-27T10:26:05.952Z,1284
2019-04-27T10:27:07.960Z,1260
2019-04-27T10:28:09.266Z,1268
2019-04-27T10:29:10.979Z,1380
2019-04-27T10:30:13.058Z,1536
2019-04-27T10:31:14.965Z,1672
2019-04-27T10:32:17.044Z,1864
2019-04-27T10:33:19.412Z,2140
2019-04-27T10:34:21.927Z,2636
2019-04-27T10:35:23.921Z,2144
2019-04-27T10:36:26.906Z,1528
2019-04-27T10:37:27.774Z,1224
2019-04-27T10:38:29.708Z,1104
2019-04-27T10:39:31.096Z,1052
2019-04-27T10:40:32.633Z,1068
2019-04-27T10:41:34.111Z,1124
2019-04-27T10:42:35.940Z,1184
2019-04-27T10:43:37.253Z,1312
2019-04-27T10:44:38.789Z,1548
2019-04-27T10:45:40.233Z,1872
2019-04-27T10:46:41.697Z,2112
2019-04-27T10:47:43.160Z,1800
2019-04-27T10:48:45.707Z,1744
2019-04-27T10:49:48.287Z,1628
2019-04-27T10:50:47.887Z,1432
2019-04-27T10:51:49.338Z,1360
2019-04-27T10:52:53.658Z,1392
2019-04-27T10:53:52.217Z,1480
2019-04-27T10:54:53.742Z,1564
2019-04-27T10:55:56.427Z,1608
2019-04-27T10:56:56.542Z,1720
2019-04-27T10:57:57.991Z,1776
2019-04-27T10:58:59.384Z,1732
2019-04-27T11:00:00.790Z,1620
2019-04-27T11:01:02.198Z,1612
2019-04-27T11:02:03.591Z,1704
2019-04-27T11:03:06.546Z,1852
2019-04-27T11:04:06.389Z,2184
2019-04-27T11:05:07.777Z,2592
2019-04-27T11:06:09.176Z,2696
2019-04-27T11:07:10.588Z,2532
2019-04-27T11:08:11.985Z,2376
2019-04-27T11:09:13.392Z,2096
2019-04-27T11:10:16.179Z,3132
2019-04-27T11:11:16.165Z,3996
2019-04-27T11:12:17.585Z,6904
2019-04-27T11:13:18.977Z,3564
2019-04-27T11:14:20.378Z,3444
2019-04-27T11:15:21.776Z,4728
2019-04-27T11:16:23.172Z,7704
2019-04-27T11:17:26.593Z,6052
2019-04-27T11:18:25.949Z,5128
2019-04-27T11:19:27.354Z,3832
2019-04-27T11:20:28.747Z,2804
2019-04-27T11:21:30.142Z,2156
2019-04-27T11:22:31.537Z,1852
2019-04-27T11:23:32.928Z,2040
2019-04-27T11:24:34.330Z,2132
2019-04-27T11:25:36.481Z,2284
2019-04-27T11:26:37.092Z,3132
2019-04-27T11:27:38.487Z,2488
2019-04-27T11:28:42.553Z,2648
2019-04-27T11:29:41.249Z,2288
2019-04-27T11:30:42.686Z,2088
2019-04-27T11:31:44.085Z,1916
2019-04-27T11:32:45.480Z,1832
2019-04-27T11:33:46.901Z,1752
2019-04-27T11:34:48.309Z,1656
2019-04-27T11:35:49.721Z,1560
2019-04-27T11:36:51.100Z,1548
2019-04-27T11:37:52.495Z,1576
2019-04-27T11:38:53.898Z,1588
2019-04-27T11:39:55.949Z,1672
2019-04-27T11:40:56.774Z,1840
2019-04-27T11:41:58.050Z,1952
2019-04-27T11:42:59.449Z,2136
2019-04-27T11:44:00.847Z,2332
2019-04-27T11:45:02.238Z,2328
2019-04-27T11:46:03.638Z,2424
2019-04-27T11:47:06.030Z,2788
2019-04-27T11:48:06.393Z,3224
2019-04-27T11:49:07.807Z,4828
2019-04-27T11:50:09.197Z,5972
2019-04-27T11:51:11.073Z,3892
2019-04-27T11:52:11.958Z,6584
2019-04-27T11:53:22.122Z,4244
2019-04-27T11:54:14.717Z,3004
2019-04-27T11:55:16.231Z,3064
2019-04-27T11:56:17.747Z,4112
2019-04-27T11:57:18.839Z,5148
2019-04-27T11:58:20.259Z,3804
2019-04-27T11:59:21.662Z,3168
2019-04-27T12:00:23.060Z,3412
2019-04-27T12:01:24.467Z,3524
2019-04-27T12:02:25.861Z,3192
2019-04-27T12:03:27.257Z,2628
2019-04-27T12:04:28.653Z,2968
2019-04-27T12:05:30.051Z,2940
2019-04-27T12:06:31.457Z,2796
2019-04-27T12:07:32.861Z,2704
2019-04-27T12:08:34.279Z,2916
2019-04-27T12:09:35.672Z,2832
2019-04-27T12:10:37.068Z,2908
2019-04-27T12:11:38.492Z,3080
2019-04-27T12:12:39.970Z,3304
2019-04-27T12:13:41.371Z,3432
2019-04-27T12:14:42.767Z,3480
2019-04-27T12:15:44.164Z,3916
2019-04-27T12:16:46.124Z,3992
2019-04-27T12:17:46.971Z,4048
2019-04-27T12:18:49.207Z,5208
2019-04-27T12:19:49.748Z,7168
2019-04-27T12:20:51.145Z,4528
2019-04-27T12:21:52.549Z,9324
2019-04-27T12:22:53.947Z,7420
2019-04-27T12:23:55.347Z,8396
2019-04-27T12:24:56.755Z,7060
2019-04-27T12:25:58.159Z,4352
2019-04-27T12:26:59.550Z,3476
2019-04-27T12:28:00.980Z,6108
2019-04-27T12:29:02.377Z,2944
2019-04-27T12:30:03.865Z,3104
2019-04-27T12:31:05.301Z,5612
2019-04-27T12:32:06.717Z,8080
2019-04-27T12:33:08.119Z,4656
2019-04-27T12:34:09.513Z,7584
2019-04-27T12:35:10.911Z,4428
2019-04-27T12:36:12.317Z,7264
2019-04-27T12:37:15.638Z,4764
2019-04-27T12:38:15.081Z,7920
2019-04-27T12:39:16.599Z,6140
2019-04-27T12:40:17.986Z,7724
2019-04-27T12:41:19.384Z,5648
2019-04-27T12:42:21.145Z,7120
2019-04-27T12:43:22.140Z,4016
2019-04-27T12:44:23.540Z,6972
2019-04-27T12:45:26.545Z,6940
2019-04-27T12:46:26.335Z,5916
2019-04-27T12:47:27.736Z,6984
2019-04-27T12:48:29.138Z,6988
2019-04-27T12:49:31.074Z,3404
2019-04-27T12:50:32.472Z,6720
2019-04-27T12:51:35.608Z,6840
2019-04-27T12:52:36.064Z,6768
2019-04-27T12:53:48.266Z,6708
2019-04-27T12:54:37.957Z,6552
2019-04-27T12:55:39.359Z,6428
2019-04-27T12:56:40.759Z,6436
2019-04-27T12:57:42.160Z,6500
2019-04-27T12:58:43.577Z,6444
2019-04-27T12:59:46.543Z,6512
2019-04-27T13:00:46.548Z,6524
2019-04-27T13:01:47.849Z,6396
2019-04-27T13:02:49.241Z,6456
2019-04-27T13:03:50.638Z,6396
2019-04-27T13:04:52.037Z,6660
2019-04-27T13:05:53.442Z,6784
2019-04-27T13:06:55.866Z,6652
2019-04-27T13:07:56.200Z,6360
2019-04-27T13:08:57.622Z,6324
2019-04-27T13:09:59.018Z,6348
2019-04-27T13:11:00.415Z,6392
2019-04-27T13:12:01.815Z,6464
2019-04-27T13:13:03.217Z,6480
2019-04-27T13:14:06.094Z,6864
2019-04-27T13:15:05.984Z,7076
2019-04-27T13:16:07.405Z,6904
2019-04-27T13:17:08.803Z,6844
2019-04-27T13:18:10.205Z,7320
2019-04-27T13:19:11.691Z,2556
2019-04-27T13:20:13.090Z,7576
2019-04-27T13:21:15.760Z,7164
2019-04-27T13:22:16.533Z,1796
2019-04-27T13:23:17.216Z,1484
2019-04-27T13:24:18.618Z,1076
2019-04-27T13:25:20.016Z,812
2019-04-27T13:26:21.426Z,584
2019-04-27T13:27:22.815Z,400
2019-04-27T13:28:25.585Z,268
2019-04-27T13:29:25.689Z,224
2019-04-27T13:30:26.938Z,264
2019-04-27T13:31:28.339Z,340
2019-04-27T13:32:29.753Z,400
2019-04-27T13:33:31.178Z,460
2019-04-27T13:34:32.572Z,508
2019-04-27T13:35:34.210Z,536
2019-04-27T13:36:36.634Z,572
2019-04-27T13:37:36.763Z,664
2019-04-27T13:38:38.057Z,752
2019-04-27T13:39:39.455Z,872
2019-04-27T13:40:40.849Z,1036
2019-04-27T13:41:42.243Z,1264
2019-04-27T13:42:43.644Z,2236
2019-04-27T13:43:45.039Z,3076
2019-04-27T13:44:46.432Z,3464
2019-04-27T13:45:47.835Z,3948
2019-04-27T13:46:49.233Z,4020
2019-04-27T13:47:50.625Z,4120
2019-04-27T13:48:52.033Z,4016
2019-04-27T13:49:53.430Z,4040
2019-04-27T13:50:56.522Z,7464
2019-04-27T13:51:57.480Z,6844
2019-04-27T13:52:57.587Z,6524
2019-04-27T13:53:59.000Z,6304
2019-04-27T13:55:00.402Z,6164
2019-04-27T13:56:01.797Z,6028
2019-04-27T13:57:03.191Z,5968
2019-04-27T13:58:04.580Z,5916
2019-04-27T13:59:07.712Z,5856
2019-04-27T14:00:07.331Z,5824
2019-04-27T14:01:08.734Z,5824
2019-04-27T14:02:10.140Z,5808
2019-04-27T14:03:11.539Z,5784
2019-04-27T14:04:13.954Z,5852
2019-04-27T14:05:14.295Z,6052
2019-04-27T14:06:15.745Z,5852
2019-04-27T14:07:17.147Z,5800
2019-04-27T14:08:18.631Z,6188
2019-04-27T14:09:20.070Z,6612
2019-04-27T14:10:21.485Z,6900
2019-04-27T14:11:22.883Z,1960
2019-04-27T14:12:24.284Z,1900
2019-04-27T14:13:25.730Z,6164
2019-04-27T14:14:28.789Z,2860